createdAt,value
2018-12-26T00:04:48.674Z,0.39
2018-12-26T00:07:17.181Z,0.41
2018-12-26T00:09:45.681Z,0.51
2018-12-26T00:12:14.220Z,0.55
2018-12-26T00:14:42.722Z,0.51
2018-12-26T00:17:11.229Z,0.50
2018-12-26T00:20:19.784Z,0.57
2018-12-26T00:22:48.288Z,0.63
2018-12-26T00:25:16.833Z,0.67
2018-12-26T00:27:47.082Z,0.77
2018-12-26T00:30:15.580Z,0.87
2018-12-26T00:35:38.095Z,0.93
2018-12-26T00:38:19.053Z,0.84
2018-12-26T00:40:47.559Z,0.70
2018-12-26T00:43:16.063Z,0.47
2018-12-26T00:45:44.601Z,0.35
2018-12-26T00:48:13.109Z,0.36
2018-12-26T00:50:41.610Z,0.40
2018-12-26T00:55:44.562Z,0.48
2018-12-26T00:58:13.064Z,0.47
2018-12-26T01:03:15.817Z,0.30
2018-12-26T01:08:18.359Z,0.03
2018-12-26T01:10:46.872Z,0.01
2018-12-26T01:13:15.427Z,0.08
2018-12-26T01:15:43.927Z,0.12
2018-12-26T01:18:24.299Z,0.17
2018-12-26T01:23:16.973Z,0.25
2018-12-26T01:25:45.472Z,0.27
2018-12-26T01:30:47.758Z,0.09
2018-12-26T01:33:16.255Z,0.07
2018-12-26T01:38:19.127Z,-0.03
2018-12-26T01:40:47.631Z,-0.12
2018-12-26T01:43:16.171Z,-0.22
2018-12-26T01:45:44.675Z,-0.21
2018-12-26T01:48:13.179Z,-0.20
2018-12-26T01:53:15.927Z,0.01
2018-12-26T01:55:44.432Z,0.12
2018-12-26T02:00:46.567Z,0.24
2018-12-26T02:03:34.498Z,0.26
2018-12-26T02:06:02.995Z,0.25
2018-12-26T02:08:31.498Z,0.24
2018-12-26T02:11:00.012Z,0.29
2018-12-26T02:13:28.511Z,0.36
2018-12-26T02:15:57.009Z,0.43
2018-12-26T02:21:18.797Z,0.48
2018-12-26T02:23:47.332Z,0.49
2018-12-26T02:26:15.903Z,0.43
2018-12-26T02:28:44.411Z,0.40
2018-12-26T02:31:12.970Z,0.37
2018-12-26T02:33:41.473Z,0.38
2018-12-26T02:36:09.968Z,0.36
2018-12-26T02:38:38.499Z,0.28
2018-12-26T02:41:06.999Z,0.14
2018-12-26T02:43:35.501Z,0.03
2018-12-26T02:59:14.147Z,0.00
2018-12-26T03:04:17.335Z,-0.01
2018-12-26T03:06:45.863Z,-0.05
2018-12-26T03:09:14.370Z,-0.03
2018-12-26T03:11:42.883Z,-0.03
2018-12-26T03:17:04.617Z,-0.11
2018-12-26T03:22:07.465Z,-0.14
2018-12-26T03:27:10.465Z,-0.16
2018-12-26T03:29:38.975Z,-0.23
2018-12-26T03:34:41.448Z,-0.26
2018-12-26T03:37:09.992Z,-0.18
2018-12-26T03:39:38.491Z,-0.15
2018-12-26T03:42:26.423Z,-0.07
2018-12-26T03:45:34.859Z,0.02
2018-12-26T03:48:43.320Z,0.03
2018-12-26T03:51:11.826Z,-0.15
2018-12-26T03:53:59.530Z,-0.33
2018-12-26T03:56:28.040Z,-0.51
2018-12-26T04:02:10.288Z,-0.67
2018-12-26T04:05:18.720Z,-0.64
2018-12-26T04:08:06.572Z,-0.58
2018-12-26T04:10:35.073Z,-0.64
2018-12-26T04:13:43.636Z,-0.59
2018-12-26T04:16:52.072Z,-0.55
2018-12-26T04:19:20.622Z,-0.48
2018-12-26T04:27:31.648Z,-0.85
2018-12-26T04:30:00.249Z,-0.79
2018-12-26T04:32:28.772Z,-0.76
2018-12-26T04:35:16.486Z,-0.79
2018-12-26T04:40:18.753Z,-0.67
2018-12-26T04:42:47.256Z,-0.65
2018-12-26T04:45:15.790Z,-0.65
2018-12-26T04:47:44.288Z,-0.66
2018-12-26T04:50:12.794Z,-0.66
2018-12-26T04:55:15.059Z,-0.64
2018-12-26T05:00:17.796Z,-0.48
2018-12-26T05:02:46.334Z,-0.40
2018-12-26T05:07:49.083Z,-0.30
2018-12-26T05:12:51.240Z,-0.15
2018-12-26T05:15:19.799Z,-0.14
2018-12-26T05:17:48.824Z,-0.15
2018-12-26T05:20:18.503Z,-0.13
2018-12-26T05:23:06.451Z,-0.05
2018-12-26T05:25:34.947Z,0.01
2018-12-26T05:28:03.441Z,0.03
2018-12-26T05:30:31.962Z,0.07
2018-12-26T05:33:00.534Z,0.09
2018-12-26T05:35:29.034Z,0.11
2018-12-26T05:40:31.206Z,0.11
2018-12-26T05:45:33.601Z,0.09
2018-12-26T05:50:36.544Z,0.08
2018-12-26T05:55:39.456Z,-0.01
2018-12-26T05:58:07.946Z,0.03
2018-12-26T06:03:09.985Z,0.20
2018-12-26T06:05:38.488Z,0.31
2018-12-26T06:08:46.941Z,0.40
2018-12-26T06:11:15.430Z,0.47
2018-12-26T06:13:43.926Z,0.54
2018-12-26T06:18:46.464Z,0.62
2018-12-26T06:23:48.717Z,0.64
2018-12-26T06:26:17.202Z,0.66
2018-12-26T06:31:20.186Z,0.66
2018-12-26T06:36:23.103Z,0.71
2018-12-26T06:41:25.268Z,0.75
2018-12-26T06:43:53.766Z,0.78
2018-12-26T06:49:14.944Z,0.81
2018-12-26T06:54:17.861Z,0.86
2018-12-26T06:56:46.357Z,0.87
2018-12-26T07:01:49.095Z,0.90
2018-12-26T07:04:17.663Z,0.93
2018-12-26T07:06:46.144Z,0.96
2018-12-26T07:09:14.642Z,0.98
2018-12-26T07:14:16.889Z,1.00
2018-12-26T07:16:45.385Z,1.01
2018-12-26T07:27:09.610Z,1.12
2018-12-26T07:29:38.163Z,1.12
2018-12-26T07:32:06.656Z,1.12
2018-12-26T07:34:42.189Z,1.14
2018-12-26T07:39:38.966Z,1.18
2018-12-26T07:42:07.464Z,1.18
2018-12-26T07:47:09.599Z,1.19
2018-12-26T07:49:38.169Z,1.22
2018-12-26T07:54:40.652Z,1.23
2018-12-26T07:57:09.179Z,1.24
2018-12-26T07:59:37.978Z,1.24
2018-12-26T08:02:07.931Z,1.20
2018-12-26T08:04:36.409Z,1.18
2018-12-26T08:07:04.907Z,1.19
2018-12-26T08:09:33.409Z,1.20
2018-12-26T08:14:35.619Z,1.21
2018-12-26T08:17:04.119Z,1.28
2018-12-26T08:22:06.954Z,1.44
2018-12-26T08:27:09.829Z,1.52
2018-12-26T08:29:38.360Z,1.59
2018-12-26T08:32:06.859Z,1.65
2018-12-26T08:34:37.504Z,1.70
2018-12-26T08:37:05.606Z,1.74
2018-12-26T08:39:34.097Z,1.75
2018-12-26T08:42:02.591Z,1.77
2018-12-26T08:47:05.506Z,1.74
2018-12-26T08:49:34.004Z,1.76
2018-12-26T08:54:36.981Z,1.72
2018-12-26T08:57:05.531Z,1.72
2018-12-26T08:59:34.035Z,1.74
2018-12-26T09:02:02.536Z,1.80
2018-12-26T09:07:05.684Z,1.89
2018-12-26T09:09:34.201Z,1.86
2018-12-26T09:12:16.918Z,1.83
2018-12-26T09:14:32.923Z,1.83
2018-12-26T09:19:35.477Z,1.84
2018-12-26T09:22:03.970Z,1.86
2018-12-26T09:27:46.194Z,1.97
2018-12-26T09:32:48.387Z,2.14
2018-12-26T09:35:16.891Z,2.24
2018-12-26T09:40:19.030Z,2.53
2018-12-26T09:42:47.520Z,2.65
2018-12-26T09:47:50.350Z,2.76
2018-12-26T09:52:52.449Z,2.82
2018-12-26T09:55:20.979Z,2.91
2018-12-26T09:57:49.479Z,2.99
2018-12-26T10:00:17.980Z,3.08
2018-12-26T10:02:46.524Z,3.13
2018-12-26T10:05:15.077Z,3.15
2018-12-26T10:07:43.531Z,3.23
2018-12-26T10:12:46.034Z,3.45
2018-12-26T10:15:14.830Z,3.51
2018-12-26T10:17:43.328Z,3.50
2018-12-26T10:20:11.828Z,3.55
2018-12-26T10:25:14.640Z,3.68
2018-12-26T10:30:17.074Z,3.84
2018-12-26T10:32:45.569Z,3.96
2018-12-26T10:35:33.474Z,4.02
2018-12-26T10:38:01.974Z,4.10
2018-12-26T10:43:17.990Z,4.25
2018-12-26T10:45:46.483Z,4.35
2018-12-26T10:48:14.981Z,4.48
2018-12-26T10:53:17.518Z,4.66
2018-12-26T10:55:46.126Z,4.78
2018-12-26T10:58:14.626Z,4.84
2018-12-26T11:00:43.122Z,4.99
2018-12-26T11:03:11.941Z,5.19
2018-12-26T11:05:40.508Z,5.35
2018-12-26T11:08:09.072Z,5.42
2018-12-26T11:10:37.622Z,5.52
2018-12-26T11:13:06.120Z,5.61
2018-12-26T11:15:34.614Z,5.68
2018-12-26T11:18:03.384Z,5.67
2018-12-26T11:20:32.016Z,5.64
2018-12-26T11:23:00.512Z,5.55
2018-12-26T11:25:29.106Z,5.53
2018-12-26T11:27:57.603Z,5.54
2018-12-26T11:30:26.094Z,5.53
2018-12-26T11:32:54.700Z,5.56
2018-12-26T11:35:23.269Z,5.60
2018-12-26T11:37:51.775Z,5.62
2018-12-26T11:40:20.491Z,5.62
2018-12-26T11:42:49.165Z,5.59
2018-12-26T11:45:17.663Z,5.58
2018-12-26T11:50:20.046Z,5.55
2018-12-26T11:52:48.653Z,5.56
2018-12-26T11:55:17.220Z,5.56
2018-12-26T11:57:45.709Z,5.60
2018-12-26T12:00:14.226Z,5.66
2018-12-26T12:02:44.471Z,5.70
2018-12-26T12:05:13.046Z,5.78
2018-12-26T12:10:16.078Z,5.92
2018-12-26T12:15:38.961Z,6.05
2018-12-26T12:18:07.517Z,6.09
2018-12-26T12:20:36.007Z,6.13
2018-12-26T12:25:38.899Z,6.30
2018-12-26T12:30:42.112Z,6.46
2018-12-26T12:36:03.629Z,6.72
2018-12-26T12:39:12.378Z,6.85
2018-12-26T12:41:40.871Z,6.99
2018-12-26T12:44:09.369Z,7.21
2018-12-26T12:46:57.221Z,7.40
2018-12-26T12:49:25.719Z,7.62
2018-12-26T12:51:54.213Z,7.84
2018-12-26T12:54:42.183Z,7.96
2018-12-26T12:57:10.681Z,8.12
2018-12-26T12:59:44.715Z,8.27
2018-12-26T13:04:43.415Z,8.48
2018-12-26T13:09:45.890Z,8.64
2018-12-26T13:12:33.708Z,8.70
2018-12-26T13:15:21.537Z,8.74
2018-12-26T13:22:59.067Z,8.87
2018-12-26T13:25:27.562Z,8.95
2018-12-26T13:27:56.094Z,9.05
2018-12-26T13:30:24.628Z,9.13
2018-12-26T13:32:53.126Z,9.24
2018-12-26T13:35:21.628Z,9.31
2018-12-26T13:40:24.474Z,9.36
2018-12-26T13:42:52.996Z,9.37
2018-12-26T13:45:21.490Z,9.37
2018-12-26T13:47:49.984Z,9.40
2018-12-26T13:52:59.912Z,9.53
2018-12-26T13:55:47.933Z,9.59
2018-12-26T13:58:28.527Z,9.61
2018-12-26T14:03:31.029Z,9.71
2018-12-26T14:05:59.558Z,9.74
2018-12-26T14:08:28.053Z,9.70
2018-12-26T14:10:56.550Z,9.68
2018-12-26T14:13:25.093Z,9.75
2018-12-26T14:15:53.588Z,9.79
2018-12-26T14:18:41.472Z,9.80
2018-12-26T14:21:49.914Z,9.75
2018-12-26T14:26:52.385Z,9.62
2018-12-26T14:29:20.931Z,9.40
2018-12-26T14:31:49.430Z,9.09
2018-12-26T14:34:17.925Z,8.73
2018-12-26T14:39:20.431Z,8.21
2018-12-26T14:41:48.958Z,8.02
2018-12-26T14:44:17.454Z,7.84
2018-12-26T14:46:45.948Z,7.68
2018-12-26T14:51:48.828Z,7.32
2018-12-26T14:54:36.824Z,7.15
2018-12-26T14:57:05.314Z,7.04
2018-12-26T14:59:46.477Z,6.88
2018-12-26T15:02:17.990Z,6.72
2018-12-26T15:04:46.480Z,6.56
2018-12-26T15:09:49.468Z,6.33
2018-12-26T15:12:17.958Z,6.24
2018-12-26T15:14:46.506Z,6.20
2018-12-26T15:17:15.006Z,6.11
2018-12-26T15:19:43.507Z,5.90
2018-12-26T15:24:46.053Z,5.79
2018-12-26T15:27:14.548Z,5.73
2018-12-26T15:32:16.919Z,5.58
2018-12-26T15:34:45.394Z,5.47
2018-12-26T15:39:48.289Z,5.39
2018-12-26T15:44:51.302Z,5.25
2018-12-26T15:47:19.829Z,5.21
2018-12-26T15:49:48.344Z,5.15
2018-12-26T15:52:36.159Z,5.01
2018-12-26T15:55:04.805Z,4.93
2018-12-26T15:57:33.306Z,4.71
2018-12-26T16:02:36.311Z,4.29
2018-12-26T16:05:44.845Z,4.10
2018-12-26T16:08:13.343Z,3.98
2018-12-26T16:10:41.847Z,3.90
2018-12-26T16:15:44.824Z,3.60
2018-12-26T16:18:13.526Z,3.47
2018-12-26T16:20:41.960Z,3.31
2018-12-26T16:23:10.466Z,3.27
2018-12-26T16:25:39.008Z,3.25
2018-12-26T16:28:07.507Z,3.23
2018-12-26T16:30:36.011Z,3.15
2018-12-26T16:33:04.539Z,3.04
2018-12-26T16:35:33.040Z,2.94
2018-12-26T16:38:01.999Z,2.85
2018-12-26T16:43:06.188Z,2.81
2018-12-26T16:45:34.730Z,2.83
2018-12-26T16:48:14.861Z,2.92
2018-12-26T16:50:33.458Z,2.91
2018-12-26T16:53:02.088Z,2.96
2018-12-26T16:55:30.587Z,2.98
2018-12-26T16:58:18.527Z,3.11
2018-12-26T17:00:54.804Z,3.29
2018-12-26T17:03:17.328Z,3.45
2018-12-26T17:08:20.348Z,3.27
2018-12-26T17:10:48.873Z,3.24
2018-12-26T17:13:17.378Z,3.22
2018-12-26T17:15:45.880Z,3.22
2018-12-26T17:20:48.064Z,3.05
2018-12-26T17:23:16.565Z,3.02
2018-12-26T17:28:19.335Z,2.88
2018-12-26T17:30:47.896Z,2.84
2018-12-26T17:33:16.397Z,2.82
2018-12-26T17:35:44.897Z,2.81
2018-12-26T17:38:13.499Z,2.79
2018-12-26T17:40:42.002Z,2.73
2018-12-26T17:43:10.499Z,2.69
2018-12-26T17:45:39.073Z,2.65
2018-12-26T17:48:07.578Z,2.63
2018-12-26T17:50:55.449Z,2.56
2018-12-26T17:54:03.911Z,2.54
2018-12-26T17:57:12.406Z,2.48
2018-12-26T18:00:20.911Z,2.45
2018-12-26T18:02:49.444Z,2.40
2018-12-26T18:05:30.626Z,2.29
2018-12-26T18:07:59.159Z,2.23
2018-12-26T18:10:27.673Z,2.03
2018-12-26T18:12:56.172Z,1.90
2018-12-26T18:15:24.798Z,1.88
2018-12-26T18:17:53.310Z,1.88
2018-12-26T18:20:21.812Z,1.82
2018-12-26T18:25:24.952Z,1.57
2018-12-26T18:27:53.600Z,1.57
2018-12-26T18:30:22.168Z,1.48
2018-12-26T18:32:50.683Z,1.38
2018-12-26T18:37:53.326Z,1.35
2018-12-26T18:42:55.676Z,1.35
2018-12-26T18:45:24.255Z,1.36
2018-12-26T18:47:52.802Z,1.32
2018-12-26T18:50:21.414Z,1.29
2018-12-26T18:52:49.911Z,1.30
2018-12-26T18:55:18.510Z,1.32
2018-12-26T18:57:47.015Z,1.26
2018-12-26T19:00:15.511Z,1.27
2018-12-26T19:05:18.053Z,1.18
2018-12-26T19:07:46.601Z,1.12
2018-12-26T19:10:17.413Z,1.13
2018-12-26T19:12:45.921Z,1.14
2018-12-26T19:17:48.626Z,1.14
2018-12-26T19:22:51.187Z,1.03
2018-12-26T19:25:19.748Z,0.99
2018-12-26T19:30:22.022Z,0.95
2018-12-26T19:32:50.562Z,0.94
2018-12-26T19:35:19.112Z,1.00
2018-12-26T19:37:47.615Z,1.03
2018-12-26T19:40:16.126Z,1.08
2018-12-26T19:45:19.096Z,0.93
2018-12-26T19:47:47.660Z,0.85
2018-12-26T19:50:16.239Z,0.78
2018-12-26T19:52:44.740Z,0.77
2018-12-26T19:58:07.579Z,0.76
2018-12-26T20:00:36.110Z,0.76
2018-12-26T20:03:04.684Z,0.64
2018-12-26T20:05:33.225Z,0.60
2018-12-26T20:08:01.726Z,0.54
2018-12-26T20:10:30.234Z,0.46
2018-12-26T20:15:33.236Z,0.32
2018-12-26T20:20:36.492Z,0.31
2018-12-26T20:25:38.740Z,0.25
2018-12-26T20:28:07.254Z,0.17
2018-12-26T20:33:09.358Z,0.00
2018-12-26T20:35:37.874Z,0.03
2018-12-26T20:38:06.566Z,0.17
2018-12-26T20:40:35.075Z,0.25
2018-12-26T20:43:03.664Z,0.29
2018-12-26T20:45:32.286Z,0.29
2018-12-26T20:48:00.789Z,0.16
2018-12-26T20:50:29.316Z,0.17
2018-12-26T20:55:32.374Z,0.23
2018-12-26T21:00:34.629Z,0.24
2018-12-26T21:03:03.124Z,0.27
2018-12-26T21:08:05.670Z,0.33
2018-12-26T21:10:34.170Z,0.36
2018-12-26T21:13:02.772Z,0.44
2018-12-26T21:15:31.276Z,0.49
2018-12-26T21:17:59.803Z,0.50
2018-12-26T21:23:02.326Z,0.49
2018-12-26T21:25:30.976Z,0.47
2018-12-26T21:27:59.490Z,0.45
2018-12-26T21:30:27.998Z,0.47
2018-12-26T21:32:56.610Z,0.53
2018-12-26T21:35:25.110Z,0.52
2018-12-26T21:37:53.614Z,0.49
2018-12-26T21:40:22.150Z,0.50
2018-12-26T21:42:50.648Z,0.49
2018-12-26T21:45:19.158Z,0.49
2018-12-26T21:47:47.692Z,0.47
2018-12-26T21:50:16.188Z,0.50
2018-12-26T21:52:44.698Z,0.50
2018-12-26T21:57:46.723Z,0.51
2018-12-26T22:00:15.234Z,0.53
2018-12-26T22:02:43.849Z,0.55
2018-12-26T22:05:12.362Z,0.50
2018-12-26T22:07:40.872Z,0.44
2018-12-26T22:12:43.629Z,0.18
2018-12-26T22:15:12.198Z,0.12
2018-12-26T22:17:40.699Z,0.08
2018-12-26T22:20:09.208Z,0.06
2018-12-26T22:22:37.818Z,0.12
2018-12-26T22:25:06.389Z,0.15
2018-12-26T22:27:34.924Z,0.18
2018-12-26T22:32:57.744Z,0.20
2018-12-26T22:35:26.415Z,0.25
2018-12-26T22:37:54.916Z,0.25
2018-12-26T22:40:23.678Z,0.16
2018-12-26T22:42:52.177Z,0.04
2018-12-26T22:45:20.679Z,0.01
2018-12-26T22:47:49.310Z,0.02
2018-12-26T22:50:17.822Z,-0.01
2018-12-26T22:52:46.331Z,-0.02
2018-12-26T22:55:15.117Z,-0.10
2018-12-26T22:57:43.624Z,-0.21
2018-12-26T23:05:35.907Z,-0.38
2018-12-26T23:10:38.762Z,-0.54
2018-12-26T23:13:07.391Z,-0.65
2018-12-26T23:15:35.911Z,-0.72
2018-12-26T23:18:04.419Z,-0.78
2018-12-26T23:23:07.639Z,-0.89
2018-12-26T23:25:36.270Z,-0.89
2018-12-26T23:28:04.775Z,-0.89
2018-12-26T23:30:33.281Z,-0.90
2018-12-26T23:33:01.813Z,-0.85
2018-12-26T23:35:30.320Z,-0.76
2018-12-26T23:37:58.820Z,-0.75
2018-12-26T23:43:01.455Z,-0.71
2018-12-26T23:48:04.065Z,-0.69
2018-12-26T23:53:06.583Z,-0.73
2018-12-26T23:55:35.125Z,-0.72
2018-12-26T23:58:03.634Z,-0.67
